Hauptseite
METAR-TAF:

METAR-TAF

Flughäfen :

Bournemouth Airport

Bournemouth, England

Breite: 50-47N, Länge: 001-50W, Höhe: 11 m

Beobachtung

Neuester Wetterbericht von vor 4 Stunden und 32 Minuten, um 21:50 UTC
Wind 7 kt aus Ost/Nordost
Temperatur 5°C
Luftfeuchtigkeit 93%
Luftdruck 1025 hPa
Sichtweite 10 km oder mehr
keine Wolken unter 1500 m und keine Kumulonimbus oder Gewitterwolken

METAR: EGHH 172150Z 07007KT CAVOK 05/04 Q1025

Zeit: 02:22 (02:22 UTC)

Prognose

Neuester Wetterbericht von vor 3 Stunden und 22 Minuten, um 23:00 UTC
Gültige Prognose vom 18 um 00 UTC bis 18 um 09 UTC
Wind 8 kt aus Ost/Nordost
Sichtweite 10 km oder mehr
Leicht bewölkt in der Höhe von 2000 ft
Wahrscheinlichkeit 30%
vom 18 um 00 UTC bis 18 um 09 UTC
Sichtweite: 5000 m
trockener Dunst

TAF: EGHH 172300Z 1800/1809 06008KT 9999 FEW020 PROB30 1800/1809 5000 HZ

Wetterbeobachtungen und Prognosen von mehr als 4000 Flughäfen (METAR und TAF Bericht).

Die verfügbaren Stationen werden durch gelbe und rote Markierungen auf der Karte dargestellt.

Führen Sie die Maus auf sie, um den Namen der Station zu sehen.

Darauf klicken, um die Beobachtung von Wetterbeobachtungen und Prognosen zu sehen.

Um die Karte zu ändern : klicken Sie auf den grünen Tasten mit einem schwarzen Kreuz Zum Vergrößern, auf den grünen Button mit einem Gedankenstrich zu verkleinern, oder auf die grünen Pfeile für benachbarte Karten.


METAR-TAF: